createdAt,value
2022-08-04T00:02:11.233Z,2.53
2022-08-04T00:05:05.535Z,2.65
2022-08-04T00:08:01.922Z,2.70
2022-08-04T00:10:54.841Z,2.67
2022-08-04T00:13:59.807Z,2.60
2022-08-04T00:16:51.213Z,2.45
2022-08-04T00:19:44.927Z,2.35
2022-08-04T00:22:33.180Z,2.75
2022-08-04T00:25:19.857Z,2.35
2022-08-04T00:28:06.555Z,2.42
2022-08-04T00:30:53.692Z,2.65
2022-08-04T00:33:40.870Z,3.05
2022-08-04T00:36:30.617Z,2.65
2022-08-04T00:39:19.754Z,2.60
2022-08-04T00:42:18.349Z,2.47
2022-08-04T00:45:29.586Z,2.78
2022-08-04T00:48:34.102Z,2.70
2022-08-04T00:51:48.331Z,3.33
2022-08-04T00:55:21.264Z,3.30
2022-08-04T00:58:30.000Z,3.47
2022-08-04T01:01:37.807Z,2.95
2022-08-04T01:05:02.320Z,3.20
2022-08-04T01:08:25.465Z,3.38
2022-08-04T01:11:14.177Z,3.38
2022-08-04T01:14:19.869Z,3.15
2022-08-04T01:17:37.647Z,2.95
2022-08-04T01:20:32.753Z,3.08
2022-08-04T01:24:09.970Z,3.08
2022-08-04T01:27:09.525Z,3.03
2022-08-04T01:29:58.901Z,3.30
2022-08-04T01:32:53.368Z,3.15
2022-08-04T01:35:48.948Z,3.20
2022-08-04T01:38:37.494Z,3.45
2022-08-04T01:41:32.495Z,3.22
2022-08-04T01:44:20.035Z,2.92
2022-08-04T01:47:06.968Z,3.15
2022-08-04T01:50:00.192Z,3.40
2022-08-04T01:52:50.988Z,3.25
2022-08-04T01:55:55.012Z,2.83
2022-08-04T01:58:43.772Z,2.88
2022-08-04T02:01:37.301Z,3.28
2022-08-04T02:04:23.862Z,2.97
2022-08-04T02:07:32.178Z,3.05
2022-08-04T02:10:28.372Z,3.05
2022-08-04T02:13:49.887Z,2.97
2022-08-04T02:16:44.265Z,2.90
2022-08-04T02:19:42.230Z,3.38
2022-08-04T02:22:29.492Z,2.85
2022-08-04T02:25:24.692Z,2.60
2022-08-04T02:28:24.918Z,3.53
2022-08-04T02:31:23.573Z,2.65
2022-08-04T02:34:26.023Z,2.55
2022-08-04T02:37:12.553Z,2.70
2022-08-04T02:40:01.561Z,2.95
2022-08-04T02:42:47.722Z,2.67
2022-08-04T02:45:37.207Z,2.90
2022-08-04T02:51:25.295Z,3.10
2022-08-04T02:54:11.372Z,3.30
2022-08-04T02:56:59.935Z,2.80
2022-08-04T02:59:54.729Z,2.97
2022-08-04T03:03:01.947Z,3.22
2022-08-04T03:06:10.348Z,2.85
2022-08-04T03:09:09.512Z,2.65
2022-08-04T03:12:26.770Z,2.53
2022-08-04T03:15:31.093Z,3.00
2022-08-04T03:18:38.143Z,2.80
2022-08-04T03:21:53.799Z,3.20
2022-08-04T03:24:54.913Z,2.80
2022-08-04T03:27:52.180Z,2.72
2022-08-04T03:30:56.383Z,2.78
2022-08-04T03:33:53.546Z,2.88
2022-08-04T03:37:16.362Z,2.50
2022-08-04T03:40:28.240Z,2.60
2022-08-04T03:43:57.115Z,2.58
2022-08-04T03:47:22.336Z,2.50
2022-08-04T03:50:42.145Z,2.78
2022-08-04T03:53:58.189Z,2.47
2022-08-04T03:57:08.813Z,3.20
2022-08-04T03:59:57.943Z,2.75
2022-08-04T04:03:02.781Z,2.95
2022-08-04T04:06:20.805Z,2.60
2022-08-04T04:09:20.543Z,2.95
2022-08-04T04:12:19.949Z,2.97
2022-08-04T04:15:24.396Z,2.70
2022-08-04T04:18:35.393Z,3.20
2022-08-04T04:21:28.544Z,2.65
2022-08-04T04:24:46.688Z,3.10
2022-08-04T04:27:38.069Z,2.72
2022-08-04T04:30:46.071Z,2.85
2022-08-04T04:33:49.667Z,2.53
2022-08-04T04:36:57.526Z,2.88
2022-08-04T04:39:57.947Z,2.95
2022-08-04T04:42:54.852Z,3.20
2022-08-04T04:46:17.837Z,2.72
2022-08-04T04:49:34.881Z,3.42
2022-08-04T04:52:32.548Z,3.00
2022-08-04T04:55:26.844Z,2.67
2022-08-04T04:58:16.898Z,2.80
2022-08-04T05:01:21.203Z,3.10
2022-08-04T05:04:25.467Z,2.55
2022-08-04T05:07:20.456Z,2.55
2022-08-04T05:10:21.306Z,2.70
2022-08-04T05:14:38.593Z,2.67
2022-08-04T05:16:47.946Z,2.92
2022-08-04T05:19:55.581Z,2.67
2022-08-04T05:22:56.622Z,2.60
2022-08-04T05:25:59.339Z,2.85
2022-08-04T05:28:58.236Z,3.03
2022-08-04T05:31:51.019Z,2.78
2022-08-04T05:34:48.047Z,2.85
2022-08-04T05:37:38.363Z,2.80
2022-08-04T05:40:26.777Z,2.70
2022-08-04T05:43:14.334Z,3.00
2022-08-04T05:46:01.016Z,3.20
2022-08-04T05:48:47.737Z,2.55
2022-08-04T05:51:35.147Z,2.78
2022-08-04T05:54:23.111Z,3.05
2022-08-04T05:57:10.042Z,3.00
2022-08-04T05:59:58.884Z,2.97
2022-08-04T06:02:47.959Z,3.35
2022-08-04T06:05:34.517Z,3.38
2022-08-04T06:08:20.619Z,3.72
2022-08-04T06:11:08.814Z,3.45
2022-08-04T06:14:03.316Z,3.42
2022-08-04T06:16:51.679Z,3.75
2022-08-04T06:19:59.592Z,3.28
2022-08-04T06:22:53.929Z,3.67
2022-08-04T06:25:47.507Z,3.75
2022-08-04T06:28:35.371Z,3.53
2022-08-04T06:32:31.377Z,3.65
2022-08-04T06:34:48.573Z,3.78
2022-08-04T06:37:42.266Z,3.80
2022-08-04T06:40:33.379Z,3.88
2022-08-04T06:43:21.140Z,3.67
2022-08-04T06:46:08.512Z,4.10
2022-08-04T06:48:55.483Z,3.90
2022-08-04T06:51:48.997Z,4.00
2022-08-04T06:54:35.071Z,3.97
2022-08-04T06:57:24.876Z,4.50
2022-08-04T07:00:13.926Z,4.05
2022-08-04T07:03:02.368Z,4.60
2022-08-04T07:05:49.569Z,3.83
2022-08-04T07:08:36.671Z,4.13
2022-08-04T07:11:23.768Z,4.82
2022-08-04T07:14:10.335Z,3.80
2022-08-04T07:16:57.043Z,4.50
2022-08-04T07:19:44.521Z,3.80
2022-08-04T07:22:30.605Z,3.65
2022-08-04T07:25:16.676Z,4.20
2022-08-04T07:28:02.597Z,3.53
2022-08-04T07:30:50.408Z,3.53
2022-08-04T07:33:36.837Z,3.60
2022-08-04T07:36:22.890Z,4.10
2022-08-04T07:39:28.417Z,3.75
2022-08-04T07:42:19.805Z,3.80
2022-08-04T07:45:06.664Z,3.92
2022-08-04T07:48:05.357Z,3.97
2022-08-04T07:50:52.961Z,3.35
2022-08-04T07:53:53.138Z,3.28
2022-08-04T07:56:43.431Z,3.15
2022-08-04T07:59:29.424Z,3.70
2022-08-04T08:02:19.082Z,3.65
2022-08-04T08:07:54.436Z,3.25
2022-08-04T08:10:47.217Z,3.50
2022-08-04T08:13:34.030Z,3.08
2022-08-04T08:16:21.189Z,3.17
2022-08-04T08:19:11.429Z,3.28
2022-08-04T08:22:00.113Z,3.20
2022-08-04T08:24:46.639Z,2.78
2022-08-04T08:27:32.523Z,3.00
2022-08-04T08:30:18.114Z,3.20
2022-08-04T08:33:09.690Z,3.20
2022-08-04T08:36:23.246Z,3.00
2022-08-04T08:39:28.833Z,3.10
2022-08-04T08:44:00.471Z,3.33
2022-08-04T08:46:17.428Z,3.03
2022-08-04T08:50:01.902Z,3.08
2022-08-04T08:53:01.400Z,3.70
2022-08-04T08:56:17.384Z,3.30
2022-08-04T08:59:28.209Z,3.00
2022-08-04T09:02:32.178Z,3.05
2022-08-04T09:05:29.043Z,3.30
2022-08-04T09:08:46.620Z,2.95
2022-08-04T09:11:47.976Z,2.92
2022-08-04T09:14:51.816Z,3.10
2022-08-04T09:17:43.233Z,3.15
2022-08-04T09:20:35.951Z,3.10
2022-08-04T09:23:40.103Z,3.28
2022-08-04T09:27:00.219Z,3.53
2022-08-04T09:29:56.689Z,3.03
2022-08-04T09:32:50.299Z,2.85
2022-08-04T09:35:59.585Z,3.10
2022-08-04T09:38:59.129Z,3.40
2022-08-04T09:42:00.864Z,3.00
2022-08-04T09:45:01.987Z,3.47
2022-08-04T09:48:05.384Z,3.17
2022-08-04T09:50:59.155Z,3.10
2022-08-04T09:54:30.707Z,3.30
2022-08-04T09:57:36.291Z,3.08
2022-08-04T10:00:38.463Z,2.70
2022-08-04T10:03:36.456Z,2.92
2022-08-04T10:06:35.850Z,3.38
2022-08-04T10:09:21.657Z,3.42
2022-08-04T10:12:25.838Z,2.83
2022-08-04T10:15:20.254Z,2.95
2022-08-04T10:18:33.553Z,2.90
2022-08-04T10:21:37.668Z,3.03
2022-08-04T10:24:54.092Z,2.97
2022-08-04T10:27:54.919Z,2.47
2022-08-04T10:30:50.077Z,2.70
2022-08-04T10:34:02.288Z,2.30
2022-08-04T10:36:54.321Z,2.05
2022-08-04T10:40:12.006Z,1.80
2022-08-04T10:43:02.168Z,2.10
2022-08-04T10:46:05.333Z,1.95
2022-08-04T10:49:04.998Z,1.42
2022-08-04T10:52:03.355Z,2.47
2022-08-04T10:54:55.278Z,1.97
2022-08-04T10:58:09.644Z,2.10
2022-08-04T11:00:59.751Z,1.70
2022-08-04T11:03:56.727Z,1.70
2022-08-04T11:06:44.417Z,1.95
2022-08-04T11:09:31.846Z,1.50
2022-08-04T11:12:23.438Z,1.40
2022-08-04T11:15:38.247Z,1.48
2022-08-04T11:18:29.653Z,1.20
2022-08-04T11:21:21.504Z,1.55
2022-08-04T11:24:33.649Z,1.60
2022-08-04T11:27:49.397Z,1.42
2022-08-04T11:30:59.318Z,1.50
2022-08-04T11:33:55.353Z,1.52
2022-08-04T11:36:50.238Z,1.30
2022-08-04T11:39:42.503Z,1.30
2022-08-04T11:42:31.975Z,1.35
2022-08-04T11:45:24.746Z,1.23
2022-08-04T11:48:23.155Z,1.20
2022-08-04T11:53:56.835Z,1.20
2022-08-04T11:56:42.972Z,1.40
2022-08-04T11:59:30.726Z,1.50
2022-08-04T12:02:47.953Z,1.50
2022-08-04T12:05:41.686Z,1.30
2022-08-04T12:08:52.606Z,1.33
2022-08-04T12:11:56.127Z,1.45
2022-08-04T12:14:51.766Z,1.40
2022-08-04T12:18:02.546Z,1.23
2022-08-04T12:21:00.695Z,1.70
2022-08-04T12:23:49.521Z,1.63
2022-08-04T12:26:54.036Z,1.40
2022-08-04T12:29:41.196Z,1.63
2022-08-04T12:32:48.265Z,1.30
2022-08-04T12:36:10.632Z,1.45
2022-08-04T12:38:56.740Z,1.42
2022-08-04T12:42:01.330Z,1.40
2022-08-04T12:44:54.365Z,1.48
2022-08-04T12:47:41.517Z,1.40
2022-08-04T12:50:28.689Z,1.55
2022-08-04T12:53:19.374Z,1.38
2022-08-04T12:56:26.599Z,1.40
2022-08-04T12:59:13.518Z,1.20
2022-08-04T13:02:07.248Z,1.58
2022-08-04T13:05:02.638Z,1.70
2022-08-04T13:07:51.750Z,1.50
2022-08-04T13:10:44.971Z,1.38
2022-08-04T13:13:35.750Z,1.60
2022-08-04T13:16:30.272Z,1.50
2022-08-04T13:19:16.268Z,1.77
2022-08-04T13:22:05.574Z,1.70
2022-08-04T13:24:56.959Z,1.48
2022-08-04T13:28:00.957Z,1.77
2022-08-04T13:30:53.008Z,1.42
2022-08-04T13:33:42.276Z,1.40
2022-08-04T13:36:30.165Z,1.30
2022-08-04T13:39:21.824Z,1.27
2022-08-04T13:42:10.854Z,1.58
2022-08-04T13:44:59.803Z,1.65
2022-08-04T13:47:48.511Z,1.70
2022-08-04T13:53:22.013Z,1.52
2022-08-04T13:56:10.678Z,1.50
2022-08-04T13:59:01.379Z,1.80
2022-08-04T14:01:59.075Z,1.50
2022-08-04T14:04:54.409Z,1.27
2022-08-04T14:07:54.202Z,1.67
2022-08-04T14:10:40.243Z,1.70
2022-08-04T14:13:41.239Z,1.73
2022-08-04T14:16:27.879Z,2.00
2022-08-04T14:19:13.709Z,1.27
2022-08-04T14:21:59.915Z,1.40
2022-08-04T14:24:59.374Z,1.50
2022-08-04T14:27:49.624Z,1.60
2022-08-04T14:30:37.645Z,1.60
2022-08-04T14:34:02.230Z,1.73
2022-08-04T14:37:13.067Z,1.52
2022-08-04T14:40:17.785Z,1.55
2022-08-04T14:45:54.275Z,1.35
2022-08-04T14:49:10.231Z,1.42
2022-08-04T14:52:00.082Z,1.98
2022-08-04T14:54:46.065Z,1.80
2022-08-04T14:58:35.898Z,1.80
2022-08-04T15:00:43.131Z,1.80
2022-08-04T15:03:30.616Z,1.58
2022-08-04T15:06:21.586Z,1.60
2022-08-04T15:09:10.165Z,1.60
2022-08-04T15:11:56.044Z,1.48
2022-08-04T15:14:44.557Z,1.75
2022-08-04T15:17:31.278Z,1.70
2022-08-04T15:20:17.730Z,1.60
2022-08-04T15:23:07.375Z,1.85
2022-08-04T15:26:02.500Z,1.73
2022-08-04T15:28:54.441Z,1.77
2022-08-04T15:32:06.779Z,1.67
2022-08-04T15:34:51.093Z,1.70
2022-08-04T15:38:03.402Z,1.80
2022-08-04T15:40:55.774Z,1.98
2022-08-04T15:44:00.455Z,1.90
2022-08-04T15:46:52.186Z,2.00
2022-08-04T15:49:39.993Z,2.15
2022-08-04T15:52:31.201Z,1.98
2022-08-04T15:55:36.977Z,1.77
2022-08-04T15:58:23.733Z,1.73
2022-08-04T16:01:16.189Z,2.05
2022-08-04T16:04:21.523Z,1.98
2022-08-04T16:07:07.024Z,1.83
2022-08-04T16:09:52.785Z,1.85
2022-08-04T16:12:55.605Z,2.10
2022-08-04T16:15:41.816Z,2.28
2022-08-04T16:18:30.779Z,1.83
2022-08-04T16:24:29.701Z,1.88
2022-08-04T16:27:34.766Z,1.70
2022-08-04T16:30:20.619Z,2.10
2022-08-04T16:33:09.010Z,2.10
2022-08-04T16:36:08.002Z,1.83
2022-08-04T16:39:05.040Z,2.20
2022-08-04T16:41:50.930Z,1.90
2022-08-04T16:44:53.235Z,2.10
2022-08-04T16:47:48.517Z,1.88
2022-08-04T16:50:46.063Z,1.80
2022-08-04T16:54:02.597Z,1.90
2022-08-04T16:56:47.132Z,1.70
2022-08-04T16:59:32.892Z,2.08
2022-08-04T17:02:25.261Z,2.00
2022-08-04T17:05:38.729Z,1.92
2022-08-04T17:08:29.981Z,2.10
2022-08-04T17:11:17.396Z,1.90
2022-08-04T17:14:05.908Z,1.90
2022-08-04T17:16:53.156Z,2.25
2022-08-04T17:19:38.986Z,1.90
2022-08-04T17:22:24.744Z,2.30
2022-08-04T17:25:11.338Z,2.53
2022-08-04T17:28:20.527Z,2.00
2022-08-04T17:31:11.700Z,1.90
2022-08-04T17:34:00.828Z,1.90
2022-08-04T17:36:48.439Z,1.75
2022-08-04T17:39:38.133Z,1.90
2022-08-04T17:42:33.105Z,3.85
2022-08-04T17:45:50.658Z,2.97
2022-08-04T17:48:25.229Z,2.35
2022-08-04T17:51:17.459Z,2.28
2022-08-04T17:54:05.003Z,3.00
2022-08-04T17:56:53.512Z,2.58
2022-08-04T17:59:52.249Z,3.80
2022-08-04T18:02:53.543Z,7.35
2022-08-04T18:06:02.106Z,2.88
2022-08-04T18:08:51.832Z,2.72
2022-08-04T18:11:43.118Z,2.80
2022-08-04T18:14:40.829Z,2.50
2022-08-04T18:18:22.124Z,3.75
2022-08-04T18:20:41.605Z,2.30
2022-08-04T18:23:32.160Z,2.10
2022-08-04T18:26:18.378Z,2.10
2022-08-04T18:29:21.781Z,2.30
2022-08-04T18:32:16.063Z,2.40
2022-08-04T18:35:07.456Z,2.60
2022-08-04T18:38:05.865Z,1.92
2022-08-04T18:40:54.618Z,2.53
2022-08-04T18:43:41.316Z,2.47
2022-08-04T18:46:27.415Z,2.53
2022-08-04T18:51:01.836Z,2.10
2022-08-04T18:52:24.161Z,2.30
2022-08-04T18:55:09.968Z,2.58
2022-08-04T18:58:01.004Z,2.30
2022-08-04T19:00:52.035Z,2.42
2022-08-04T19:03:39.324Z,2.13
2022-08-04T19:06:33.481Z,2.30
2022-08-04T19:09:21.156Z,2.50
2022-08-04T19:15:08.716Z,2.10
2022-08-04T19:18:00.146Z,2.28
2022-08-04T19:20:46.965Z,2.10
2022-08-04T19:24:28.101Z,2.40
2022-08-04T19:26:41.827Z,2.40
2022-08-04T19:29:41.192Z,2.60
2022-08-04T19:32:29.118Z,2.28
2022-08-04T19:35:17.016Z,2.55
2022-08-04T19:38:03.733Z,2.60
2022-08-04T19:40:52.582Z,2.45
2022-08-04T19:43:43.625Z,2.40
2022-08-04T19:46:31.646Z,2.60
2022-08-04T19:50:05.113Z,2.03
2022-08-04T19:52:33.395Z,2.20
2022-08-04T19:55:37.614Z,2.72
2022-08-04T19:58:25.969Z,2.88
2022-08-04T20:04:20.698Z,2.78
2022-08-04T20:07:11.065Z,2.40
2022-08-04T20:10:00.243Z,2.80
2022-08-04T20:12:55.621Z,3.20
2022-08-04T20:15:55.255Z,2.53
2022-08-04T20:18:55.461Z,2.55
2022-08-04T20:21:54.990Z,2.58
2022-08-04T20:24:49.194Z,2.60
2022-08-04T20:27:51.770Z,2.67
2022-08-04T20:30:47.616Z,2.60
2022-08-04T20:33:35.522Z,3.05
2022-08-04T20:36:23.524Z,2.85
2022-08-04T20:39:09.983Z,3.00
2022-08-04T20:41:55.946Z,3.00
2022-08-04T20:44:46.827Z,3.20
2022-08-04T20:47:35.680Z,2.78
2022-08-04T20:50:30.061Z,2.92
2022-08-04T20:53:17.777Z,3.05
2022-08-04T20:56:04.586Z,2.80
2022-08-04T20:58:52.855Z,2.80
2022-08-04T21:01:39.258Z,2.78
2022-08-04T21:04:35.591Z,2.87
2022-08-04T21:07:25.320Z,3.00
2022-08-04T21:10:11.643Z,2.90
2022-08-04T21:12:59.771Z,3.00
2022-08-04T21:15:58.614Z,3.08
2022-08-04T21:18:47.092Z,3.40
2022-08-04T21:21:37.460Z,2.60
2022-08-04T21:24:26.329Z,2.63
2022-08-04T21:30:00.143Z,2.83
2022-08-04T21:32:46.445Z,3.28
2022-08-04T21:35:39.188Z,3.35
2022-08-04T21:38:28.318Z,2.80
2022-08-04T21:41:24.461Z,2.80
2022-08-04T21:44:11.793Z,2.92
2022-08-04T21:46:58.072Z,2.83
2022-08-04T21:49:56.493Z,3.05
2022-08-04T21:52:43.044Z,2.95
2022-08-04T21:56:05.581Z,2.17
2022-08-04T21:58:38.100Z,2.90
2022-08-04T22:01:52.469Z,2.85
2022-08-04T22:04:31.088Z,2.75
2022-08-04T22:07:17.408Z,2.78
2022-08-04T22:10:04.971Z,2.88
2022-08-04T22:12:51.983Z,2.85
2022-08-04T22:16:04.049Z,2.90
2022-08-04T22:18:50.877Z,2.90
2022-08-04T22:21:46.620Z,2.53
2022-08-04T22:24:34.295Z,2.92
2022-08-04T22:27:39.890Z,2.83
2022-08-04T22:30:29.165Z,2.75
2022-08-04T22:33:19.656Z,3.28
2022-08-04T22:39:04.469Z,2.78
2022-08-04T22:42:04.522Z,2.90
2022-08-04T22:44:50.746Z,2.63
2022-08-04T22:47:36.960Z,3.10
2022-08-04T22:50:27.008Z,2.95
2022-08-04T22:53:17.925Z,2.90
2022-08-04T22:56:10.486Z,2.85
2022-08-04T22:58:56.768Z,2.95
2022-08-04T23:01:58.892Z,3.10
2022-08-04T23:04:49.958Z,2.78
2022-08-04T23:07:47.615Z,3.03
2022-08-04T23:10:35.439Z,3.10
2022-08-04T23:13:22.224Z,3.10
2022-08-04T23:16:09.996Z,2.90
2022-08-04T23:18:56.747Z,3.17
2022-08-04T23:21:47.631Z,3.00
2022-08-04T23:24:47.813Z,3.10
2022-08-04T23:27:40.346Z,3.08
2022-08-04T23:30:30.486Z,3.33
2022-08-04T23:33:16.447Z,3.10
2022-08-04T23:36:02.450Z,3.22
2022-08-04T23:38:49.680Z,3.30
2022-08-04T23:41:54.016Z,3.00
2022-08-04T23:44:46.025Z,3.13
2022-08-04T23:48:19.041Z,3.28
2022-08-04T23:50:37.885Z,3.38
2022-08-04T23:53:25.752Z,2.50
2022-08-04T23:56:19.714Z,3.15
2022-08-04T23:59:18.042Z,2.90
